Quick Links (Output Below):   Max & Min Temps   /   Climate Reports   /   Zone Forecasts
River Forecasts   /   Forestry Forecasts   /   Aviation Forecasts   /   Radars   /   Features

Terminal Aerodrome Forecast (Harrison)

Pick a Site:
Arkadelphia | El Dorado | Fayetteville | Fort Smith | Harrison | Highfill | Hot Springs | Jonesboro
Little Rock | Monticello | Mountain Home | Pine Bluff | Texarkana

KHRO 090733Z 0908/1006 VRB03KT P6SM OVC100
      TEMPO 0908/0909 35008KT
     FM090900 35008G15KT P6SM VCSH OVC050
      TEMPO 0910/0914 4SM BR
     FM092100 34007KT P6SM SCT020 OVC100=

 Latest METARs (Observations) 
How to Decode METARs
10Z KHRO 090953Z AUTO 00000KT 10SM FEW100 18/16 A3013 RMK AO2 SLP190
09Z KHRO 090853Z AUTO 31004KT 10SM FEW049 BKN095 OVC120 18/16 A3012
         RMK AO2 SLP187 T01830161 53011
08Z KHRO 090753Z AUTO 00000KT 10SM SCT090 19/16 A3010 RMK AO2 SLP176
07Z KHRO 090653Z AUTO 25003KT 10SM CLR 19/15 A3009 RMK AO2 SLP174
06Z KHRO 090553Z AUTO 25004KT 10SM CLR 19/16 A3009 RMK AO2 SLP175
         T01890156 10217 20167 402830128 58001
05Z KHRO 090453Z AUTO 26005KT 10SM CLR 18/16 A3010 RMK AO2 SLP179
04Z KHRO 090353Z AUTO 00000KT 10SM CLR 18/16 A3009 RMK AO2 SLP179
03Z KHRO 090253Z AUTO 00000KT 10SM CLR 19/16 A3009 RMK AO2 SLP180
         T01890161 51009
02Z KHRO 090153Z AUTO 25004KT 10SM CLR 19/17 A3009 RMK AO2 SLP181
01Z KHRO 090053Z AUTO 25003KT 10SM CLR 21/18 A3007 RMK AO2 SLP175
***** Today's Observations (Above) *****

Back to Main Page

USA.gov is the U.S. government's official web portal to all federal, state and local government web resources and services.